Donnie Sonier — WDF9285 — position and weather

sailwx.info

Track history (hours):
 
Tides and Currents Weather Stations Pressure Air Temp Water Temp Dewpoint Dewpoint Depression Visibility Wind Speed Wind Dir Waves Ship Positions

Donnie Sonier

Owner: LeBeouf Bros. Towing, LLC, Houma, LA. More information available from US FCC via Universal Licensing System and Coast Guard Vessel Documentation Center.

Last reported at 2017-Jan-21 21:29 UTC. Time now 2017-Jan-21 21:43 UTC.
Position N 29°47' W 095°05'.

Length 22 m; draft 3 m.

Type: Tug. MMSI: 367503580.

Date/timePositionNaut miles runAvg speedWind from/ knotsBaromVisibWave heightAir tempDewpointWater temp
2017-Jan-21 21:29N 29°47' W 095°05'0 0.1
2017-Jan-21 20:31N 29°47' W 095°05'0 0.0
2017-Jan-21 19:30N 29°47' W 095°05'0 0.0
2017-Jan-21 18:30N 29°47' W 095°05'0 0.0
2017-Jan-21 17:28N 29°47' W 095°05'0 0.0
2017-Jan-21 16:32N 29°47' W 095°05'0 0.0
2017-Jan-21 15:31N 29°47' W 095°05'0 0.0
2017-Jan-21 14:33N 29°47' W 095°05'0 0.0
2017-Jan-19 18:08N 29°47' W 095°05'0 0.0
2017-Jan-19 17:27N 29°47' W 095°05'2 0.1
2017-Jan-18 23:13N 29°45' W 095°06'0 0.0
2017-Jan-18 22:24N 29°45' W 095°06'0 0.0
2017-Jan-18 21:33N 29°45' W 095°06'0 0.0
2017-Jan-18 20:33N 29°45' W 095°06'0 0.0
2017-Jan-18 19:16N 29°45' W 095°06'0 0.0
2017-Jan-18 18:32N 29°45' W 095°06'0 0.0
2017-Jan-18 17:28N 29°45' W 095°06'0 0.0
2017-Jan-18 16:33N 29°45' W 095°06'0 0.0
2017-Jan-18 15:33N 29°45' W 095°06'0 0.0
2017-Jan-18 14:33N 29°45' W 095°06'1 0.0
2017-Jan-17 19:32N 29°46' W 095°06'6 5.7
2017-Jan-17 18:33N 29°43' W 095°01'1 1.4
2017-Jan-17 17:33N 29°42' W 095°03'0 0.0
2017-Jan-17 16:22N 29°42' W 095°03'0 0.0
2017-Jan-17 15:32N 29°42' W 095°03'1 0.4
2017-Jan-17 12:11N 29°42' W 095°01'10 0.3
2017-Jan-16 05:33N 29°34' W 094°55'5 5.1
2017-Jan-16 04:32N 29°38' W 094°58'3 0.7
2017-Jan-15 23:33N 29°41' W 095°00'0 0.0
2017-Jan-15 22:31N 29°41' W 095°00'0 0.0
2017-Jan-15 21:32N 29°41' W 095°00'0 0.0
2017-Jan-15 20:33N 29°41' W 095°00'0 0.0
2017-Jan-15 19:33N 29°41' W 095°00'0 0.0
2017-Jan-15 18:33N 29°41' W 095°00'0 0.0
2017-Jan-15 17:33N 29°41' W 095°00'0 0.0
2017-Jan-15 16:25N 29°41' W 095°00'0 0.0
2017-Jan-15 15:33N 29°41' W 095°00'0 0.0
2017-Jan-15 14:33N 29°41' W 095°00'1 0.5
2017-Jan-15 12:22N 29°41' W 094°59'4 0.1
2017-Jan-13 23:28N 29°42' W 095°03'0 0.2
2017-Jan-13 22:32N 29°42' W 095°03'0 0.0
2017-Jan-13 20:33N 29°42' W 095°03'0 0.0
2017-Jan-13 19:20N 29°42' W 095°03'0 0.0
2017-Jan-13 17:32N 29°42' W 095°03'0 0.0
2017-Jan-13 16:33N 29°42' W 095°03'0 0.1
2017-Jan-13 15:28N 29°42' W 095°03'0 0.0
2017-Jan-13 14:32N 29°42' W 095°03'0 0.0
2017-Jan-12 23:33N 29°42' W 095°03'0 0.0
2017-Jan-12 22:33N 29°42' W 095°03'0 0.0
2017-Jan-12 21:33N 29°42' W 095°03'0 0.0
2017-Jan-12 20:33N 29°42' W 095°03'0 0.0
2017-Jan-12 19:30N 29°42' W 095°03'0 0.0
2017-Jan-12 18:33N 29°42' W 095°03'0 0.0
2017-Jan-12 17:34N 29°42' W 095°03'0 0.0
2017-Jan-12 16:33N 29°42' W 095°03'0 0.0
2017-Jan-12 15:33N 29°42' W 095°03'0 0.1
2017-Jan-12 14:32N 29°42' W 095°03'0 0.0
2017-Jan-11 23:32N 29°42' W 095°03'0 0.0
2017-Jan-11 22:18N 29°42' W 095°03'  
Track history (hours):
 
Tides and Currents Weather Stations Pressure Air Temp Water Temp Dewpoint Dewpoint Depression Visibility Wind Speed Wind Dir Waves Ship Positions

Donnie Sonier

Owner: LeBeouf Bros. Towing, LLC, Houma, LA. More information available from US FCC via Universal Licensing System and Coast Guard Vessel Documentation Center.

Last reported at 2017-Jan-21 21:29 UTC. Time now 2017-Jan-21 21:43 UTC.
Position N 29°47' W 095°05'.

Length 22 m; draft 3 m.

Type: Tug. MMSI: 367503580.

Date/timePositionNaut miles runAvg speedWind from/ knotsBaromVisibWave heightAir tempDewpointWater temp
2017-Jan-21 21:29N 29°47' W 095°05'0 0.1
2017-Jan-21 20:31N 29°47' W 095°05'0 0.0
2017-Jan-21 19:30N 29°47' W 095°05'0 0.0
2017-Jan-21 18:30N 29°47' W 095°05'0 0.0
2017-Jan-21 17:28N 29°47' W 095°05'0 0.0
2017-Jan-21 16:32N 29°47' W 095°05'0 0.0
2017-Jan-21 15:31N 29°47' W 095°05'0 0.0
2017-Jan-21 14:33N 29°47' W 095°05'0 0.0
2017-Jan-19 18:08N 29°47' W 095°05'0 0.0
2017-Jan-19 17:27N 29°47' W 095°05'2 0.1
2017-Jan-18 23:13N 29°45' W 095°06'0 0.0
2017-Jan-18 22:24N 29°45' W 095°06'0 0.0
2017-Jan-18 21:33N 29°45' W 095°06'0 0.0
2017-Jan-18 20:33N 29°45' W 095°06'0 0.0
2017-Jan-18 19:16N 29°45' W 095°06'0 0.0
2017-Jan-18 18:32N 29°45' W 095°06'0 0.0
2017-Jan-18 17:28N 29°45' W 095°06'0 0.0
2017-Jan-18 16:33N 29°45' W 095°06'0 0.0
2017-Jan-18 15:33N 29°45' W 095°06'0 0.0
2017-Jan-18 14:33N 29°45' W 095°06'1 0.0
2017-Jan-17 19:32N 29°46' W 095°06'6 5.7
2017-Jan-17 18:33N 29°43' W 095°01'1 1.4
2017-Jan-17 17:33N 29°42' W 095°03'0 0.0
2017-Jan-17 16:22N 29°42' W 095°03'0 0.0
2017-Jan-17 15:32N 29°42' W 095°03'1 0.4
2017-Jan-17 12:11N 29°42' W 095°01'10 0.3
2017-Jan-16 05:33N 29°34' W 094°55'5 5.1
2017-Jan-16 04:32N 29°38' W 094°58'3 0.7
2017-Jan-15 23:33N 29°41' W 095°00'0 0.0
2017-Jan-15 22:31N 29°41' W 095°00'0 0.0
2017-Jan-15 21:32N 29°41' W 095°00'0 0.0
2017-Jan-15 20:33N 29°41' W 095°00'0 0.0
2017-Jan-15 19:33N 29°41' W 095°00'0 0.0
2017-Jan-15 18:33N 29°41' W 095°00'0 0.0
2017-Jan-15 17:33N 29°41' W 095°00'0 0.0
2017-Jan-15 16:25N 29°41' W 095°00'0 0.0
2017-Jan-15 15:33N 29°41' W 095°00'0 0.0
2017-Jan-15 14:33N 29°41' W 095°00'1 0.5
2017-Jan-15 12:22N 29°41' W 094°59'4 0.1
2017-Jan-13 23:28N 29°42' W 095°03'0 0.2
2017-Jan-13 22:32N 29°42' W 095°03'0 0.0
2017-Jan-13 20:33N 29°42' W 095°03'0 0.0
2017-Jan-13 19:20N 29°42' W 095°03'0 0.0
2017-Jan-13 17:32N 29°42' W 095°03'0 0.0
2017-Jan-13 16:33N 29°42' W 095°03'0 0.1
2017-Jan-13 15:28N 29°42' W 095°03'0 0.0
2017-Jan-13 14:32N 29°42' W 095°03'0 0.0
2017-Jan-12 23:33N 29°42' W 095°03'0 0.0
2017-Jan-12 22:33N 29°42' W 095°03'0 0.0
2017-Jan-12 21:33N 29°42' W 095°03'0 0.0
2017-Jan-12 20:33N 29°42' W 095°03'0 0.0
2017-Jan-12 19:30N 29°42' W 095°03'0 0.0
2017-Jan-12 18:33N 29°42' W 095°03'0 0.0
2017-Jan-12 17:34N 29°42' W 095°03'0 0.0
2017-Jan-12 16:33N 29°42' W 095°03'0 0.0
2017-Jan-12 15:33N 29°42' W 095°03'0 0.1
2017-Jan-12 14:32N 29°42' W 095°03'0 0.0
2017-Jan-11 23:32N 29°42' W 095°03'0 0.0
2017-Jan-11 22:18N 29°42' W 095°03'  

Dump ship's entire track history